Charlotte, NC

1:40 PM EDT on September 29, 2016 (GMT -0400)
| | Change Station

Elev -9999 ft 0.00 °N, 0.00 °E | Updated

Partly Cloudy
Partly Cloudy
85 °F
Feels Like 84 °F
N
8
Wind Variable Wind from SSW
Gusts 12 mph

Today
High -- | Low -- °F
--% Chance of Precip.
Yesterday
High -- | Low -- °F
Precip. -- in
Pressure 29.98 in
Visibility 10.0 miles
Clouds Scattered Clouds 2000 ft
Mostly Cloudy 2600 ft
Heat Index 84 °F
Dew Point 59 °F
Humidity 42%
Rainfall --
Snow Depth Not available.
7:17 AM 7:09 PM
Waning Crescent, 2% visible
SPECI KCLT 291731Z 12010KT 10SM VCTS SCT020 BKN026 26/19 A2998 RMK AO2 LTG DSNT S T02610189
Pressure 29.98 in
Visibility 10.0 miles
Clouds Scattered Clouds 2000 ft
Mostly Cloudy 2600 ft
Heat Index 84 °F
Dew Point 59 °F
Humidity 42%
Rainfall --
Snow Depth Not available.
7:17 AM 7:09 PM
Waning Crescent, 2% visible
SPECI KCLT 291731Z 12010KT 10SM VCTS SCT020 BKN026 26/19 A2998 RMK AO2 LTG DSNT S T02610189

10-Day Weather Forecast

Almanac

Astronomy

Sep. 29, 2016 Rise Set
Actual Time
Civil Twilight
Nautical Twilight
Astronomical Twilight
Moon
Length of Visible Light
Length of Day
Tomorrow will be .
, % of the Moon is Illuminated

Today's Extremes

State Highs State Lows

Community

WunderPhotos

Upload Photos

1,942,528 photos uploaded!

WunderBlog® & News

Nearby

Air Quality

  Air Quality AQ Index Pollutant
Not available.

Snow Depth

Station Depth Elevation

Earthquake Activity

City Distance Mag. Time & Date
Minimum magnitude displayed is 2.5.

Coastal Water Temperatures

Place Temperature

Stations

Nearby Weather Stations

Station Location Temp. Windchill Dew Point Humidity Wind Precip. Elev Updated Type
                   

Watches & Warnings

There are currently no watches in effect.